createdAt,value
2023-02-27T00:01:35.116Z,102903.40
2023-02-27T00:04:03.357Z,102904.60
2023-02-27T00:06:31.504Z,102906.80
2023-02-27T00:08:59.301Z,102911.60
2023-02-27T00:11:27.837Z,102914.00
2023-02-27T00:13:56.472Z,102913.20
2023-02-27T00:16:25.600Z,102910.60
2023-02-27T00:18:53.483Z,102913.80
2023-02-27T00:21:21.959Z,102914.00
2023-02-27T00:23:51.924Z,102919.80
2023-02-27T00:26:19.869Z,102925.40
2023-02-27T00:28:50.035Z,102923.20
2023-02-27T00:31:18.220Z,102926.80
2023-02-27T00:33:46.422Z,102930.40
2023-02-27T00:36:14.743Z,102930.40
2023-02-27T00:38:42.815Z,102938.00
2023-02-27T00:41:10.774Z,102934.00
2023-02-27T00:43:38.563Z,102941.40
2023-02-27T00:46:07.744Z,102941.60
2023-02-27T00:48:39.258Z,102940.80
2023-02-27T00:51:08.217Z,102939.00
2023-02-27T00:53:36.790Z,102943.80
2023-02-27T00:56:05.077Z,102946.20
2023-02-27T00:58:33.455Z,102944.20
2023-02-27T01:01:01.593Z,102944.20
2023-02-27T01:03:30.545Z,102953.00
2023-02-27T01:06:01.787Z,102955.80
2023-02-27T01:08:29.861Z,102964.60
2023-02-27T01:10:57.675Z,102959.80
2023-02-27T01:13:26.146Z,102966.00
2023-02-27T01:15:55.526Z,102964.40
2023-02-27T01:18:25.455Z,102965.20
2023-02-27T01:20:55.049Z,102969.00
2023-02-27T01:23:24.856Z,102967.60
2023-02-27T01:25:56.001Z,102967.20
2023-02-27T01:28:25.537Z,102971.20
2023-02-27T01:30:54.176Z,102969.60
2023-02-27T01:33:22.355Z,102967.60
2023-02-27T01:35:50.361Z,102969.20
2023-02-27T01:38:18.296Z,102970.80
2023-02-27T01:40:49.169Z,102961.20
2023-02-27T01:43:20.950Z,102963.00
2023-02-27T01:45:50.376Z,102960.20
2023-02-27T01:48:39.040Z,102961.40
2023-02-27T01:51:16.706Z,102962.20
2023-02-27T01:53:51.274Z,102966.40
2023-02-27T01:56:29.054Z,102966.20
2023-02-27T01:59:05.874Z,102967.60
2023-02-27T02:01:36.625Z,102963.60
2023-02-27T02:04:19.768Z,102969.20
2023-02-27T02:06:54.059Z,102977.40
2023-02-27T02:09:22.488Z,102979.20
2023-02-27T02:11:50.632Z,102976.80
2023-02-27T02:14:19.069Z,102982.80
2023-02-27T02:17:08.685Z,102982.80
2023-02-27T02:20:35.224Z,102991.60
2023-02-27T02:24:06.905Z,102994.00
2023-02-27T02:26:48.799Z,103002.20
2023-02-27T02:30:02.528Z,102999.60
2023-02-27T02:33:02.109Z,103008.00
2023-02-27T02:36:10.424Z,103019.20
2023-02-27T02:39:45.044Z,103016.40
2023-02-27T02:42:38.830Z,103006.80
2023-02-27T02:45:33.440Z,103013.40
2023-02-27T02:48:15.934Z,103026.80
2023-02-27T02:51:06.259Z,103033.20
2023-02-27T02:54:14.673Z,103033.40
2023-02-27T02:57:14.134Z,103034.40
2023-02-27T02:59:58.472Z,103039.40
2023-02-27T03:02:34.953Z,103046.20
2023-02-27T03:05:35.322Z,103049.40
2023-02-27T03:08:15.934Z,103055.40
2023-02-27T03:10:54.305Z,103054.80
2023-02-27T03:13:36.412Z,103060.40
2023-02-27T03:16:14.506Z,103056.60
2023-02-27T03:18:59.207Z,103057.80
2023-02-27T03:21:37.349Z,103057.40
2023-02-27T03:24:12.898Z,103061.60
2023-02-27T03:26:45.508Z,103064.80
2023-02-27T03:29:41.450Z,103063.20
2023-02-27T03:33:10.655Z,103066.20
2023-02-27T03:36:09.341Z,103060.00
2023-02-27T03:38:55.011Z,103058.40
2023-02-27T03:41:43.020Z,103063.40
2023-02-27T03:44:21.028Z,103065.20
2023-02-27T03:46:50.115Z,103063.20
2023-02-27T03:49:18.366Z,103063.00
2023-02-27T03:51:47.032Z,103062.80
2023-02-27T03:54:27.229Z,103066.80
2023-02-27T03:57:04.501Z,103074.40
2023-02-27T03:59:34.491Z,103072.60
2023-02-27T04:02:06.437Z,103072.20
2023-02-27T04:04:35.751Z,103071.20
2023-02-27T04:07:37.713Z,103070.00
2023-02-27T04:10:56.252Z,103071.20
2023-02-27T04:13:52.927Z,103076.00
2023-02-27T04:16:26.760Z,103073.00
2023-02-27T04:19:24.210Z,103076.40
2023-02-27T04:22:08.845Z,103076.60
2023-02-27T04:25:05.013Z,103081.40
2023-02-27T04:27:38.383Z,103082.60
2023-02-27T04:30:15.090Z,103084.80
2023-02-27T04:33:15.167Z,103085.80
2023-02-27T04:36:12.963Z,103088.40
2023-02-27T04:39:01.874Z,103092.00
2023-02-27T04:41:39.983Z,103087.20
2023-02-27T04:44:11.969Z,103087.60
2023-02-27T04:46:44.375Z,103088.80
2023-02-27T04:49:25.784Z,103089.80
2023-02-27T04:52:08.466Z,103088.00
2023-02-27T04:55:12.128Z,103089.60
2023-02-27T04:57:52.390Z,103086.00
2023-02-27T05:00:24.748Z,103080.20
2023-02-27T05:03:09.190Z,103081.60
2023-02-27T05:05:43.647Z,103082.40
2023-02-27T05:08:42.992Z,103086.00
2023-02-27T05:11:54.795Z,103089.60
2023-02-27T05:14:35.284Z,103086.80
2023-02-27T05:17:08.765Z,103083.20
2023-02-27T05:19:42.779Z,103083.00
2023-02-27T05:22:37.656Z,103082.00
2023-02-27T05:25:37.546Z,103088.60
2023-02-27T05:28:19.164Z,103096.80
2023-02-27T05:31:20.783Z,103094.20
2023-02-27T05:34:12.482Z,103094.00
2023-02-27T05:36:50.936Z,103095.60
2023-02-27T05:39:23.967Z,103095.20
2023-02-27T05:42:02.088Z,103099.80
2023-02-27T05:44:35.552Z,103111.60
2023-02-27T05:47:13.669Z,103123.00
2023-02-27T05:49:48.499Z,103126.20
2023-02-27T05:52:24.996Z,103131.60
2023-02-27T05:55:08.526Z,103140.40
2023-02-27T05:57:47.501Z,103148.80
2023-02-27T06:00:23.033Z,103163.00
2023-02-27T06:02:50.865Z,103168.60
2023-02-27T06:05:20.145Z,103171.20
2023-02-27T06:07:47.860Z,103168.00
2023-02-27T06:10:19.723Z,103172.20
2023-02-27T06:12:47.884Z,103174.00
2023-02-27T06:15:17.588Z,103181.20
2023-02-27T06:17:45.751Z,103180.40
2023-02-27T06:20:15.152Z,103192.00
2023-02-27T06:22:42.964Z,103191.40
2023-02-27T06:25:11.413Z,103204.60
2023-02-27T06:27:39.349Z,103207.40
2023-02-27T06:30:10.412Z,103219.20
2023-02-27T06:32:39.153Z,103222.80
2023-02-27T06:35:08.546Z,103229.60
2023-02-27T06:37:39.266Z,103228.40
2023-02-27T06:40:12.127Z,103234.20
2023-02-27T06:42:45.133Z,103235.60
2023-02-27T06:45:16.252Z,103239.40
2023-02-27T06:47:45.058Z,103248.60
2023-02-27T06:50:14.585Z,103253.80
2023-02-27T06:52:43.358Z,103252.20
2023-02-27T06:55:12.081Z,103257.60
2023-02-27T06:57:39.997Z,103262.80
2023-02-27T07:00:12.072Z,103258.40
2023-02-27T07:02:40.990Z,103256.60
2023-02-27T07:05:13.814Z,103260.60
2023-02-27T07:07:42.331Z,103265.40
2023-02-27T07:10:14.086Z,103267.40
2023-02-27T07:12:42.564Z,103269.00
2023-02-27T07:15:11.218Z,103272.00
2023-02-27T07:17:39.214Z,103279.00
2023-02-27T07:20:10.922Z,103281.20
2023-02-27T07:22:41.468Z,103278.00
2023-02-27T07:25:11.343Z,103280.80
2023-02-27T07:27:39.638Z,103275.80
2023-02-27T07:30:08.928Z,103270.60
2023-02-27T07:32:37.741Z,103270.60
2023-02-27T07:35:07.946Z,103266.60
2023-02-27T07:37:35.919Z,103269.60
2023-02-27T07:40:08.074Z,103282.00
2023-02-27T07:42:37.146Z,103283.40
2023-02-27T07:45:06.449Z,103278.60
2023-02-27T07:47:34.728Z,103281.20
2023-02-27T07:50:04.897Z,103283.00
2023-02-27T07:52:33.142Z,103283.60
2023-02-27T07:55:01.102Z,103284.20
2023-02-27T07:57:29.057Z,103288.80
2023-02-27T07:59:59.496Z,103297.00
2023-02-27T08:02:27.730Z,103305.00
2023-02-27T08:04:55.917Z,103309.00
2023-02-27T08:07:23.899Z,103311.00
2023-02-27T08:09:51.815Z,103302.60
2023-02-27T08:12:19.943Z,103303.20
2023-02-27T08:14:48.084Z,103305.40
2023-02-27T08:17:16.224Z,103308.20
2023-02-27T08:19:43.982Z,103310.60
2023-02-27T08:22:12.437Z,103309.80
2023-02-27T08:24:41.045Z,103305.40
2023-02-27T08:27:08.732Z,103307.00
2023-02-27T08:29:38.705Z,103303.80
2023-02-27T08:32:06.543Z,103297.40
2023-02-27T08:34:34.397Z,103302.40
2023-02-27T08:37:02.474Z,103312.40
2023-02-27T08:39:31.195Z,103318.40
2023-02-27T08:41:59.087Z,103317.60
2023-02-27T08:44:26.797Z,103315.00
2023-02-27T08:46:57.137Z,103312.00
2023-02-27T08:49:26.095Z,103319.80
2023-02-27T08:51:54.686Z,103316.00
2023-02-27T08:54:22.592Z,103319.40
2023-02-27T08:56:51.633Z,103317.60
2023-02-27T08:59:19.344Z,103317.80
2023-02-27T09:01:47.352Z,103320.80
2023-02-27T09:04:17.597Z,103323.00
2023-02-27T09:06:45.763Z,103329.00
2023-02-27T09:09:14.757Z,103331.80
2023-02-27T09:11:46.331Z,103322.40
2023-02-27T09:14:14.068Z,103323.60
2023-02-27T09:16:42.179Z,103332.60
2023-02-27T09:19:10.478Z,103333.20
2023-02-27T09:21:43.482Z,103335.20
2023-02-27T09:24:19.859Z,103336.40
2023-02-27T09:26:49.971Z,103333.80
2023-02-27T09:29:18.489Z,103336.20
2023-02-27T09:31:46.315Z,103337.60
2023-02-27T09:34:14.220Z,103343.00
2023-02-27T09:36:45.105Z,103346.60
2023-02-27T09:39:13.215Z,103345.00
2023-02-27T09:42:04.440Z,103348.20
2023-02-27T09:44:47.061Z,103353.20
2023-02-27T09:47:39.933Z,103356.40
2023-02-27T09:50:32.816Z,103352.00
2023-02-27T09:53:01.729Z,103349.40
2023-02-27T09:55:37.926Z,103348.60
2023-02-27T09:58:30.029Z,103355.00
2023-02-27T10:01:14.663Z,103354.60
2023-02-27T10:04:24.115Z,103350.60
2023-02-27T10:07:01.588Z,103347.00
2023-02-27T10:10:11.225Z,103352.60
2023-02-27T10:13:33.924Z,103356.80
2023-02-27T10:16:04.110Z,103356.00
2023-02-27T10:18:54.515Z,103357.20
2023-02-27T10:21:34.800Z,103354.00
2023-02-27T10:24:42.708Z,103356.60
2023-02-27T10:27:19.274Z,103358.40
2023-02-27T10:29:47.876Z,103365.40
2023-02-27T10:32:34.371Z,103360.40
2023-02-27T10:35:26.139Z,103360.00
2023-02-27T10:38:01.950Z,103367.60
2023-02-27T10:40:31.276Z,103370.60
2023-02-27T10:43:05.914Z,103365.00
2023-02-27T10:45:36.564Z,103365.40
2023-02-27T10:48:06.679Z,103367.20
2023-02-27T10:50:41.170Z,103356.20
2023-02-27T10:53:22.949Z,103349.20
2023-02-27T10:56:08.077Z,103354.60
2023-02-27T10:58:38.131Z,103362.00
2023-02-27T11:01:15.296Z,103368.80
2023-02-27T11:03:45.290Z,103360.60
2023-02-27T11:06:26.594Z,103359.20
2023-02-27T11:09:24.659Z,103355.60
2023-02-27T11:11:53.696Z,103348.20
2023-02-27T11:14:33.836Z,103346.80
2023-02-27T11:17:03.403Z,103354.00
2023-02-27T11:19:40.197Z,103346.00
2023-02-27T11:22:15.520Z,103342.40
2023-02-27T11:24:43.391Z,103352.60
2023-02-27T11:27:37.890Z,103359.00
2023-02-27T11:30:32.062Z,103353.60
2023-02-27T11:33:01.644Z,103348.00
2023-02-27T11:35:37.278Z,103354.00
2023-02-27T11:38:18.899Z,103358.80
2023-02-27T11:40:55.968Z,103366.40
2023-02-27T11:43:52.558Z,103373.20
2023-02-27T11:46:47.342Z,103373.40
2023-02-27T11:49:38.173Z,103381.20
2023-02-27T11:52:13.858Z,103372.80
2023-02-27T11:54:55.472Z,103372.20
2023-02-27T11:57:38.749Z,103375.40
2023-02-27T12:00:22.134Z,103378.80
2023-02-27T12:03:02.418Z,103380.80
2023-02-27T12:05:59.742Z,103375.40
2023-02-27T12:08:50.888Z,103379.60
2023-02-27T12:11:29.925Z,103379.00
2023-02-27T12:14:28.831Z,103383.80
2023-02-27T12:17:18.508Z,103380.60
2023-02-27T12:20:48.216Z,103374.20
2023-02-27T12:24:14.027Z,103373.20
2023-02-27T12:26:48.818Z,103373.80
2023-02-27T12:29:58.536Z,103371.00
2023-02-27T12:32:43.093Z,103362.00
2023-02-27T12:35:26.209Z,103360.40
2023-02-27T12:37:56.381Z,103369.00
2023-02-27T12:40:39.398Z,103368.40
2023-02-27T12:43:26.052Z,103361.20
2023-02-27T12:46:18.303Z,103359.40
2023-02-27T12:49:23.685Z,103353.60
2023-02-27T12:52:19.588Z,103345.60
2023-02-27T12:55:06.606Z,103347.00
2023-02-27T12:57:51.399Z,103347.00
2023-02-27T13:00:26.154Z,103338.60
2023-02-27T13:03:04.149Z,103329.60
2023-02-27T13:05:44.810Z,103332.60
2023-02-27T13:08:47.457Z,103328.40
2023-02-27T13:11:22.554Z,103332.80
2023-02-27T13:14:12.417Z,103323.60
2023-02-27T13:16:46.670Z,103325.40
2023-02-27T13:19:24.533Z,103321.40
2023-02-27T13:22:02.893Z,103321.80
2023-02-27T13:24:33.498Z,103323.20
2023-02-27T13:27:38.297Z,103310.20
2023-02-27T13:30:30.436Z,103311.00
2023-02-27T13:34:02.509Z,103312.80
2023-02-27T13:36:59.070Z,103316.80
2023-02-27T13:39:48.929Z,103310.20
2023-02-27T13:42:25.424Z,103307.80
2023-02-27T13:45:26.238Z,103304.20
2023-02-27T13:47:55.520Z,103304.00
2023-02-27T13:50:24.983Z,103307.80
2023-02-27T13:52:53.142Z,103301.80
2023-02-27T13:55:31.350Z,103300.60
2023-02-27T13:58:02.162Z,103293.00
2023-02-27T14:00:34.594Z,103291.80
2023-02-27T14:03:19.099Z,103284.60
2023-02-27T14:05:51.199Z,103294.00
2023-02-27T14:08:29.620Z,103289.00
2023-02-27T14:11:22.212Z,103291.00
2023-02-27T14:13:49.939Z,103289.80
2023-02-27T14:16:40.014Z,103284.20
2023-02-27T14:19:17.339Z,103279.20
2023-02-27T14:22:03.782Z,103279.60
2023-02-27T14:25:02.431Z,103283.20
2023-02-27T14:27:48.194Z,103280.40
2023-02-27T14:30:31.295Z,103283.40
2023-02-27T14:33:40.378Z,103285.60
2023-02-27T14:36:17.943Z,103283.00
2023-02-27T14:38:47.294Z,103279.80
2023-02-27T14:42:16.594Z,103281.60
2023-02-27T14:44:48.651Z,103275.60
2023-02-27T14:47:40.843Z,103278.40
2023-02-27T14:50:37.433Z,103282.20
2023-02-27T14:53:06.884Z,103281.00
2023-02-27T14:55:37.865Z,103282.40
2023-02-27T14:58:36.149Z,103280.80
2023-02-27T15:01:09.937Z,103283.20
2023-02-27T15:03:52.365Z,103281.20
2023-02-27T15:06:43.808Z,103279.00
2023-02-27T15:09:34.804Z,103277.60
2023-02-27T15:12:05.060Z,103278.20
2023-02-27T15:14:40.449Z,103283.20
2023-02-27T15:17:21.565Z,103285.20
2023-02-27T15:19:57.419Z,103284.20
2023-02-27T15:22:39.923Z,103285.60
2023-02-27T15:25:30.304Z,103281.80
2023-02-27T15:28:08.064Z,103274.60
2023-02-27T15:30:35.840Z,103272.40
2023-02-27T15:33:11.640Z,103266.20
2023-02-27T15:35:45.831Z,103256.00
2023-02-27T15:38:30.855Z,103261.60
2023-02-27T15:41:02.296Z,103263.00
2023-02-27T15:43:31.625Z,103262.40
2023-02-27T15:46:01.607Z,103266.20
2023-02-27T15:48:33.146Z,103260.80
2023-02-27T15:51:05.842Z,103263.40
2023-02-27T15:53:35.896Z,103258.20
2023-02-27T15:56:12.234Z,103255.40
2023-02-27T15:58:54.719Z,103259.00
2023-02-27T16:01:35.012Z,103255.80
2023-02-27T16:04:14.100Z,103249.00
2023-02-27T16:07:01.598Z,103248.60
2023-02-27T16:09:34.567Z,103245.60
2023-02-27T16:12:34.938Z,103245.40
2023-02-27T16:15:20.220Z,103244.20
2023-02-27T16:18:07.853Z,103247.60
2023-02-27T16:20:47.845Z,103242.00
2023-02-27T16:23:20.898Z,103239.60
2023-02-27T16:26:24.581Z,103241.40
2023-02-27T16:29:04.489Z,103239.80
2023-02-27T16:31:38.925Z,103238.60
2023-02-27T16:34:45.936Z,103239.80
2023-02-27T16:37:35.019Z,103241.20
2023-02-27T16:40:14.401Z,103245.00
2023-02-27T16:42:45.161Z,103244.80
2023-02-27T16:45:26.483Z,103242.40
2023-02-27T16:47:58.786Z,103245.20
2023-02-27T16:50:43.259Z,103242.60
2023-02-27T16:53:11.207Z,103247.40
2023-02-27T16:55:41.120Z,103257.00
2023-02-27T16:58:16.671Z,103263.80
2023-02-27T17:00:45.018Z,103266.60
2023-02-27T17:03:14.447Z,103273.80
2023-02-27T17:05:42.605Z,103280.40
2023-02-27T17:08:12.550Z,103292.40
2023-02-27T17:10:40.492Z,103282.20
2023-02-27T17:13:08.197Z,103281.20
2023-02-27T17:15:36.387Z,103281.00
2023-02-27T17:18:04.242Z,103279.20
2023-02-27T17:20:32.460Z,103284.20
2023-02-27T17:23:00.201Z,103286.20
2023-02-27T17:25:28.320Z,103280.00
2023-02-27T17:27:56.555Z,103285.40
2023-02-27T17:30:24.857Z,103288.20
2023-02-27T17:32:54.193Z,103288.00
2023-02-27T17:35:22.490Z,103294.80
2023-02-27T17:37:50.719Z,103293.60
2023-02-27T17:40:18.641Z,103292.20
2023-02-27T17:42:48.678Z,103294.00
2023-02-27T17:45:16.737Z,103293.00
2023-02-27T17:47:45.090Z,103294.60
2023-02-27T17:50:14.390Z,103289.80
2023-02-27T17:52:42.593Z,103293.80
2023-02-27T17:55:16.537Z,103298.60
2023-02-27T17:57:44.404Z,103296.20
2023-02-27T18:00:15.626Z,103296.00
2023-02-27T18:02:45.191Z,103312.20
2023-02-27T18:05:16.238Z,103304.60
2023-02-27T18:07:46.633Z,103303.40
2023-02-27T18:10:16.140Z,103307.00
2023-02-27T18:12:44.458Z,103308.00
2023-02-27T18:15:15.143Z,103309.00
2023-02-27T18:17:44.640Z,103307.20
2023-02-27T18:20:16.417Z,103306.60
2023-02-27T18:22:44.073Z,103304.40
2023-02-27T18:25:12.839Z,103306.60
2023-02-27T18:27:40.777Z,103298.00
2023-02-27T18:30:12.034Z,103295.40
2023-02-27T18:32:39.833Z,103298.40
2023-02-27T18:35:08.543Z,103292.20
2023-02-27T18:37:36.243Z,103293.00
2023-02-27T18:40:06.057Z,103298.80
2023-02-27T18:42:34.632Z,103289.80
2023-02-27T18:45:02.800Z,103286.20
2023-02-27T18:47:30.521Z,103278.00
2023-02-27T18:49:59.146Z,103280.00
2023-02-27T18:52:29.785Z,103282.20
2023-02-27T18:54:58.055Z,103279.20
2023-02-27T18:57:26.410Z,103277.40
2023-02-27T18:59:58.961Z,103275.00
2023-02-27T19:02:26.946Z,103277.80
2023-02-27T19:04:54.685Z,103273.00
2023-02-27T19:07:25.591Z,103273.20
2023-02-27T19:09:55.111Z,103275.20
2023-02-27T19:12:24.587Z,103273.60
2023-02-27T19:14:59.015Z,103274.20
2023-02-27T19:17:28.421Z,103270.80
2023-02-27T19:19:56.296Z,103266.60
2023-02-27T19:22:29.328Z,103272.80
2023-02-27T19:24:57.593Z,103272.00
2023-02-27T19:27:25.623Z,103272.60
2023-02-27T19:29:53.671Z,103278.80
2023-02-27T19:32:21.871Z,103276.60
2023-02-27T19:34:49.845Z,103277.80
2023-02-27T19:37:18.444Z,103274.60
2023-02-27T19:39:46.662Z,103276.80
2023-02-27T19:42:14.370Z,103277.00
2023-02-27T19:44:47.304Z,103270.20
2023-02-27T19:47:15.678Z,103274.80
2023-02-27T19:49:44.060Z,103279.40
2023-02-27T19:52:13.311Z,103279.60
2023-02-27T19:54:41.163Z,103275.80
2023-02-27T19:57:09.684Z,103277.80
2023-02-27T19:59:38.876Z,103276.40
2023-02-27T20:02:07.647Z,103275.60
2023-02-27T20:04:35.946Z,103274.20
2023-02-27T20:07:04.477Z,103275.60
2023-02-27T20:09:33.965Z,103266.40
2023-02-27T20:12:05.328Z,103274.00
2023-02-27T20:14:33.097Z,103275.60
2023-02-27T20:17:01.126Z,103278.60
2023-02-27T20:19:29.174Z,103276.40
2023-02-27T20:21:58.767Z,103274.60
2023-02-27T20:24:28.247Z,103276.60
2023-02-27T20:26:59.169Z,103274.80
2023-02-27T20:29:27.838Z,103275.80
2023-02-27T20:31:57.555Z,103279.60
2023-02-27T20:34:26.794Z,103288.00
2023-02-27T20:36:56.220Z,103285.20
2023-02-27T20:39:25.213Z,103293.80
2023-02-27T20:41:52.985Z,103288.60
2023-02-27T20:44:21.253Z,103283.00
2023-02-27T20:46:49.649Z,103286.80
2023-02-27T20:49:18.671Z,103281.80
2023-02-27T20:51:47.018Z,103282.80
2023-02-27T20:54:20.486Z,103278.00
2023-02-27T20:56:52.319Z,103276.60
2023-02-27T20:59:23.425Z,103273.20
2023-02-27T21:01:53.515Z,103272.40
2023-02-27T21:04:44.191Z,103267.20
2023-02-27T21:07:18.824Z,103278.60
2023-02-27T21:09:47.794Z,103282.20
2023-02-27T21:12:17.531Z,103282.60
2023-02-27T21:14:46.833Z,103284.20
2023-02-27T21:17:15.006Z,103280.40
2023-02-27T21:19:42.774Z,103276.40
2023-02-27T21:22:11.390Z,103276.60
2023-02-27T21:24:39.313Z,103284.80
2023-02-27T21:27:07.862Z,103292.00
2023-02-27T21:29:36.405Z,103293.80
2023-02-27T21:32:05.056Z,103293.60
2023-02-27T21:34:32.981Z,103289.40
2023-02-27T21:37:03.143Z,103283.20
2023-02-27T21:39:30.952Z,103289.20
2023-02-27T21:41:59.717Z,103292.60
2023-02-27T21:44:29.732Z,103289.60
2023-02-27T21:46:59.596Z,103289.20
2023-02-27T21:49:29.552Z,103289.60
2023-02-27T21:51:57.364Z,103279.40
2023-02-27T21:54:25.121Z,103276.60
2023-02-27T21:56:53.218Z,103277.60
2023-02-27T21:59:21.800Z,103275.20
2023-02-27T22:01:49.899Z,103273.80
2023-02-27T22:04:20.506Z,103266.00
2023-02-27T22:06:51.075Z,103265.20
2023-02-27T22:09:20.366Z,103266.00
2023-02-27T22:11:49.362Z,103272.20
2023-02-27T22:14:17.749Z,103269.40
2023-02-27T22:16:45.586Z,103272.40
2023-02-27T22:19:22.786Z,103273.00
2023-02-27T22:21:50.803Z,103275.20
2023-02-27T22:24:19.167Z,103283.80
2023-02-27T22:26:49.733Z,103282.20
2023-02-27T22:29:18.148Z,103282.00
2023-02-27T22:31:46.845Z,103285.20
2023-02-27T22:34:18.818Z,103289.00
2023-02-27T22:36:52.084Z,103295.40
2023-02-27T22:39:20.945Z,103298.80
2023-02-27T22:41:48.821Z,103304.00
2023-02-27T22:44:17.389Z,103304.60
2023-02-27T22:46:49.839Z,103309.60
2023-02-27T22:49:22.012Z,103309.00
2023-02-27T22:51:52.380Z,103302.00
2023-02-27T22:54:26.263Z,103303.00
2023-02-27T22:56:56.928Z,103297.20
2023-02-27T22:59:26.813Z,103300.40
2023-02-27T23:01:54.623Z,103295.60
2023-02-27T23:04:25.754Z,103291.00
2023-02-27T23:06:56.936Z,103290.80
2023-02-27T23:09:27.201Z,103292.40
2023-02-27T23:11:56.227Z,103291.60
2023-02-27T23:14:24.216Z,103292.80
2023-02-27T23:16:52.286Z,103288.60
2023-02-27T23:19:22.687Z,103288.00
2023-02-27T23:21:50.814Z,103288.40
2023-02-27T23:24:20.236Z,103286.20
2023-02-27T23:26:51.461Z,103281.60
2023-02-27T23:29:19.638Z,103289.40
2023-02-27T23:31:48.204Z,103289.20
2023-02-27T23:34:18.788Z,103290.00
2023-02-27T23:36:46.549Z,103287.00
2023-02-27T23:39:14.469Z,103290.20
2023-02-27T23:41:42.605Z,103288.20
2023-02-27T23:44:10.899Z,103293.00
2023-02-27T23:46:39.267Z,103287.40
2023-02-27T23:49:07.739Z,103277.40
2023-02-27T23:51:35.781Z,103275.20
2023-02-27T23:54:04.034Z,103273.00
2023-02-27T23:56:35.270Z,103271.60
2023-02-27T23:59:07.308Z,103267.40
